createdAt,value
2019-06-20T00:03:25.796Z,97.90
2019-06-20T00:07:30.345Z,98.10
2019-06-20T00:11:35.041Z,98.10
2019-06-20T00:15:40.412Z,98.20
2019-06-20T00:19:44.995Z,98.20
2019-06-20T00:23:49.576Z,98.40
2019-06-20T00:27:54.131Z,98.30
2019-06-20T00:31:58.650Z,98.40
2019-06-20T00:36:03.201Z,98.10
2019-06-20T00:40:08.689Z,98.20
2019-06-20T00:44:13.231Z,98.20
2019-06-20T00:48:17.842Z,98.10
2019-06-20T00:52:22.398Z,98.40
2019-06-20T00:56:26.983Z,98.60
2019-06-20T01:00:31.603Z,98.50
2019-06-20T01:04:36.152Z,98.50
2019-06-20T01:08:40.796Z,98.10
2019-06-20T01:12:45.335Z,98.00
2019-06-20T01:16:49.992Z,97.90
2019-06-20T01:20:54.516Z,97.80
2019-06-20T01:24:59.132Z,97.50
2019-06-20T01:29:03.674Z,97.60
2019-06-20T01:33:08.214Z,97.70
2019-06-20T01:37:12.747Z,96.80
2019-06-20T01:41:17.264Z,97.20
2019-06-20T01:45:21.878Z,96.70
2019-06-20T01:49:26.382Z,97.60
2019-06-20T01:53:30.928Z,97.60
2019-06-20T01:57:35.532Z,97.10
2019-06-20T02:01:40.059Z,97.30
2019-06-20T02:05:44.949Z,97.10
2019-06-20T02:09:49.496Z,97.40
2019-06-20T02:14:06.828Z,96.90
2019-06-20T02:18:00.463Z,96.90
2019-06-20T02:22:05.307Z,97.20
2019-06-20T02:26:09.972Z,97.20
2019-06-20T02:30:14.632Z,96.80
2019-06-20T02:34:19.174Z,96.80
2019-06-20T02:38:23.749Z,96.80
2019-06-20T02:42:28.369Z,96.80
2019-06-20T02:46:33.031Z,96.90
2019-06-20T02:50:37.743Z,97.10
2019-06-20T02:54:42.415Z,96.80
2019-06-20T02:58:46.955Z,96.90
2019-06-20T03:02:51.619Z,96.90
2019-06-20T03:06:56.176Z,96.80
2019-06-20T03:11:00.684Z,97.10
2019-06-20T03:15:06.265Z,97.30
2019-06-20T03:19:10.807Z,97.40
2019-06-20T03:23:15.430Z,97.10
2019-06-20T03:27:19.966Z,97.20
2019-06-20T03:31:24.512Z,96.80
2019-06-20T03:35:28.960Z,97.10
2019-06-20T03:39:33.512Z,96.70
2019-06-20T03:43:38.021Z,96.60
2019-06-20T03:47:42.601Z,96.30
2019-06-20T03:51:47.193Z,96.20
2019-06-20T03:55:51.729Z,96.30
2019-06-20T03:59:56.256Z,96.90
2019-06-20T04:04:00.794Z,96.90
2019-06-20T04:08:05.332Z,96.90
2019-06-20T04:12:09.880Z,97.10
2019-06-20T04:16:14.506Z,96.40
2019-06-20T04:20:19.123Z,96.50
2019-06-20T04:24:23.743Z,96.20
2019-06-20T04:28:28.307Z,96.40
2019-06-20T04:32:32.844Z,96.40
2019-06-20T04:36:37.394Z,96.30
2019-06-20T04:40:42.480Z,96.40
2019-06-20T04:44:47.034Z,96.60
2019-06-20T04:48:51.484Z,96.90
2019-06-20T04:52:56.026Z,96.50
2019-06-20T04:57:00.594Z,96.40
2019-06-20T05:01:05.160Z,96.10
2019-06-20T05:05:09.876Z,96.30
2019-06-20T05:09:14.427Z,96.80
2019-06-20T05:13:19.000Z,96.00
2019-06-20T05:17:23.616Z,95.70
2019-06-20T05:21:28.243Z,95.80
2019-06-20T05:25:32.890Z,95.50
2019-06-20T05:29:37.545Z,95.60
2019-06-20T05:33:42.109Z,94.80
2019-06-20T05:37:46.659Z,95.70
2019-06-20T05:41:51.214Z,95.20
2019-06-20T05:46:08.979Z,95.50
2019-06-20T05:50:02.062Z,94.60
2019-06-20T05:54:06.649Z,94.20
2019-06-20T05:58:11.202Z,94.40
2019-06-20T06:02:15.732Z,93.80
2019-06-20T06:06:20.273Z,94.60
2019-06-20T06:10:24.971Z,94.00
2019-06-20T06:14:29.720Z,93.70
2019-06-20T06:18:34.426Z,94.00
2019-06-20T06:22:38.990Z,93.70
2019-06-20T06:26:43.597Z,94.20
2019-06-20T06:30:48.202Z,94.90
2019-06-20T06:34:52.824Z,92.90
2019-06-20T06:38:57.425Z,93.60
2019-06-20T06:43:01.978Z,93.10
2019-06-20T06:47:06.490Z,92.70
2019-06-20T06:51:11.057Z,92.50
2019-06-20T06:55:15.852Z,92.70
2019-06-20T06:59:20.387Z,92.80
2019-06-20T07:03:24.941Z,92.10
2019-06-20T07:07:29.557Z,92.90
2019-06-20T07:11:34.203Z,91.80
2019-06-20T07:15:38.876Z,91.30
2019-06-20T07:19:43.399Z,90.90
2019-06-20T07:23:47.960Z,89.60
2019-06-20T07:27:52.530Z,89.20
2019-06-20T07:31:57.189Z,87.40
2019-06-20T07:36:01.756Z,87.50
2019-06-20T07:40:08.536Z,88.90
2019-06-20T07:44:12.903Z,85.60
2019-06-20T07:48:17.598Z,82.40
2019-06-20T07:52:22.637Z,81.10
2019-06-20T07:56:27.243Z,80.60
2019-06-20T08:00:32.059Z,82.00
2019-06-20T08:04:36.613Z,79.40
2019-06-20T08:08:41.224Z,81.30
2019-06-20T08:12:45.856Z,81.40
2019-06-20T08:16:50.505Z,79.30
2019-06-20T08:20:55.299Z,78.30
2019-06-20T08:25:00.966Z,77.70
2019-06-20T08:29:18.709Z,79.70
2019-06-20T08:33:12.444Z,79.40
2019-06-20T08:37:17.267Z,81.40
2019-06-20T08:41:21.820Z,77.90
2019-06-20T08:45:28.705Z,77.10
2019-06-20T08:49:32.979Z,76.60
2019-06-20T08:53:37.531Z,77.70
2019-06-20T08:57:42.233Z,76.10
2019-06-20T09:01:46.933Z,77.80
2019-06-20T09:05:51.483Z,81.00
2019-06-20T09:09:56.068Z,72.90
2019-06-20T09:14:01.492Z,73.40
2019-06-20T09:18:06.967Z,72.40
2019-06-20T09:22:11.515Z,69.90
2019-06-20T09:26:16.269Z,76.20
2019-06-20T09:30:21.045Z,76.00
2019-06-20T09:34:25.528Z,76.00
2019-06-20T09:38:30.119Z,76.50
2019-06-20T09:42:36.857Z,75.10
2019-06-20T09:46:40.976Z,73.90
2019-06-20T09:50:45.694Z,71.00
2019-06-20T09:54:51.617Z,71.40
2019-06-20T09:58:58.273Z,70.70
2019-06-20T10:03:02.921Z,72.00
2019-06-20T10:07:07.764Z,69.70
2019-06-20T10:11:12.529Z,70.70
2019-06-20T10:15:23.022Z,72.30
2019-06-20T10:19:27.577Z,72.60
2019-06-20T10:23:32.298Z,73.40
2019-06-20T10:27:36.784Z,68.30
2019-06-20T10:31:41.536Z,69.40
2019-06-20T10:35:47.010Z,70.10
2019-06-20T10:39:52.412Z,67.60
2019-06-20T10:43:56.883Z,67.30
2019-06-20T10:48:01.428Z,71.80
2019-06-20T10:52:07.474Z,64.10
2019-06-20T10:56:12.140Z,64.00
2019-06-20T11:00:30.286Z,62.60
2019-06-20T11:04:23.296Z,64.10
2019-06-20T11:08:27.900Z,63.70
2019-06-20T11:12:42.802Z,66.30
2019-06-20T11:16:40.127Z,66.70
2019-06-20T11:20:44.884Z,65.40
2019-06-20T11:24:49.523Z,64.20
2019-06-20T11:28:54.153Z,65.00
2019-06-20T11:32:58.797Z,69.60
2019-06-20T11:37:03.633Z,68.70
2019-06-20T11:41:08.427Z,69.10
2019-06-20T11:45:13.755Z,69.40
2019-06-20T11:49:18.455Z,68.60
2019-06-20T11:53:23.137Z,68.30
2019-06-20T11:57:27.754Z,71.00
2019-06-20T12:01:33.242Z,68.60
2019-06-20T12:05:38.654Z,70.40
2019-06-20T12:09:44.390Z,71.40
2019-06-20T12:13:48.996Z,70.10
2019-06-20T12:17:53.631Z,70.90
2019-06-20T12:21:58.241Z,70.10
2019-06-20T12:26:02.956Z,71.70
2019-06-20T12:30:09.897Z,72.20
2019-06-20T12:34:14.227Z,74.10
2019-06-20T12:38:18.860Z,72.90
2019-06-20T12:42:23.556Z,71.50
2019-06-20T12:46:28.302Z,68.90
2019-06-20T12:50:32.907Z,70.20
2019-06-20T12:54:38.164Z,68.20
2019-06-20T12:58:44.441Z,64.90
2019-06-20T13:02:49.758Z,66.00
2019-06-20T13:06:54.451Z,67.30
2019-06-20T13:10:59.038Z,64.50
2019-06-20T13:15:04.823Z,67.20
2019-06-20T13:19:09.484Z,67.50
2019-06-20T13:23:14.329Z,67.50
2019-06-20T13:27:19.009Z,70.30
2019-06-20T13:31:23.671Z,71.60
2019-06-20T13:35:28.463Z,72.90
2019-06-20T13:39:33.019Z,74.90
2019-06-20T13:43:37.576Z,72.20
2019-06-20T13:47:43.100Z,71.50
2019-06-20T13:51:47.931Z,72.30
2019-06-20T13:55:52.448Z,69.70
2019-06-20T13:59:57.065Z,71.50
2019-06-20T14:04:01.560Z,71.10
2019-06-20T14:08:06.403Z,72.00
2019-06-20T14:12:11.016Z,70.70
2019-06-20T14:16:15.632Z,72.50
2019-06-20T14:20:21.560Z,69.00
2019-06-20T14:24:26.187Z,70.00
2019-06-20T14:28:30.838Z,71.20
2019-06-20T14:32:35.417Z,71.30
2019-06-20T14:36:40.101Z,70.40
2019-06-20T14:40:45.309Z,71.40
2019-06-20T14:44:49.969Z,71.10
2019-06-20T14:48:54.513Z,73.50
2019-06-20T14:52:59.081Z,72.90
2019-06-20T14:57:03.744Z,74.60
2019-06-20T15:01:08.346Z,72.10
2019-06-20T15:05:16.942Z,71.10
2019-06-20T15:09:21.539Z,69.20
2019-06-20T15:13:26.100Z,68.70
2019-06-20T15:17:30.713Z,66.40
2019-06-20T15:21:35.321Z,68.90
2019-06-20T15:25:39.991Z,67.70
2019-06-20T15:29:47.018Z,68.90
2019-06-20T15:33:51.682Z,68.90
2019-06-20T15:37:57.670Z,65.40
2019-06-20T15:42:02.567Z,66.00
2019-06-20T15:46:07.371Z,67.10
2019-06-20T15:50:12.651Z,65.50
2019-06-20T15:54:17.269Z,66.30
2019-06-20T15:58:22.209Z,66.10
2019-06-20T16:02:26.748Z,67.30
2019-06-20T16:06:31.420Z,66.80
2019-06-20T16:10:36.027Z,65.70
2019-06-20T16:14:40.601Z,65.40
2019-06-20T16:18:45.205Z,59.50
2019-06-20T16:22:49.928Z,60.30
2019-06-20T16:26:54.483Z,61.70
2019-06-20T16:31:08.276Z,61.20
2019-06-20T16:35:08.664Z,62.80
2019-06-20T16:39:13.325Z,64.00
2019-06-20T16:43:18.119Z,66.10
2019-06-20T16:47:22.746Z,66.20
2019-06-20T16:51:27.292Z,65.70
2019-06-20T16:55:31.969Z,68.50
2019-06-20T16:59:36.567Z,70.00
2019-06-20T17:03:42.215Z,70.50
2019-06-20T17:07:47.003Z,70.70
2019-06-20T17:11:51.737Z,74.90
2019-06-20T17:15:56.271Z,74.10
2019-06-20T17:20:00.884Z,71.30
2019-06-20T17:24:05.683Z,72.60
2019-06-20T17:28:10.295Z,75.80
2019-06-20T17:32:14.815Z,75.70
2019-06-20T17:36:19.442Z,79.10
2019-06-20T17:40:24.910Z,83.50
2019-06-20T17:44:29.438Z,84.90
2019-06-20T17:48:34.002Z,87.60
2019-06-20T17:52:38.674Z,90.20
2019-06-20T17:56:43.387Z,88.30
2019-06-20T18:00:48.143Z,89.40
2019-06-20T18:04:52.755Z,90.50
2019-06-20T18:08:57.466Z,90.40
2019-06-20T18:13:02.055Z,90.40
2019-06-20T18:17:06.817Z,91.10
2019-06-20T18:21:11.604Z,91.50
2019-06-20T18:25:16.347Z,91.40
2019-06-20T18:29:20.860Z,92.40
2019-06-20T18:33:25.447Z,92.40
2019-06-20T18:37:31.703Z,92.90
2019-06-20T18:41:36.752Z,93.30
2019-06-20T18:45:41.358Z,92.80
2019-06-20T18:49:46.045Z,92.80
2019-06-20T18:53:50.784Z,93.80
2019-06-20T18:57:55.478Z,94.00
2019-06-20T19:02:00.376Z,95.00
2019-06-20T19:06:04.991Z,95.20
2019-06-20T19:10:11.309Z,94.40
2019-06-20T19:14:15.952Z,95.20
2019-06-20T19:18:23.012Z,94.60
2019-06-20T19:22:26.938Z,94.30
2019-06-20T19:26:31.575Z,93.90
2019-06-20T19:30:50.580Z,93.60
2019-06-20T19:35:01.821Z,94.20
2019-06-20T19:39:01.443Z,94.00
2019-06-20T19:43:06.089Z,94.50
2019-06-20T19:47:10.760Z,94.20
2019-06-20T19:51:15.419Z,94.70
2019-06-20T19:55:20.220Z,95.10
2019-06-20T19:59:24.822Z,94.70
2019-06-20T20:03:29.510Z,94.80
2019-06-20T20:07:34.230Z,94.70
2019-06-20T20:11:38.987Z,94.50
2019-06-20T20:15:44.361Z,95.10
2019-06-20T20:19:48.965Z,95.30
2019-06-20T20:23:53.604Z,95.60
2019-06-20T20:27:58.229Z,96.30
2019-06-20T20:32:02.956Z,96.20
2019-06-20T20:36:07.589Z,96.10
2019-06-20T20:40:12.612Z,96.40
2019-06-20T20:44:17.254Z,96.60
2019-06-20T20:48:21.879Z,96.30
2019-06-20T20:52:26.462Z,96.50
2019-06-20T20:56:31.151Z,96.40
2019-06-20T21:00:50.695Z,96.40
2019-06-20T21:04:55.343Z,96.50
2019-06-20T21:08:59.909Z,96.90
2019-06-20T21:13:04.584Z,96.80
2019-06-20T21:17:09.199Z,96.70
2019-06-20T21:21:13.709Z,96.40
2019-06-20T21:25:18.244Z,96.50
2019-06-20T21:29:22.798Z,96.80
2019-06-20T21:33:27.431Z,96.70
2019-06-20T21:37:31.939Z,96.60
2019-06-20T21:41:36.510Z,96.60
2019-06-20T21:45:41.178Z,96.80
2019-06-20T21:49:45.729Z,96.90
2019-06-20T21:53:50.255Z,96.90
2019-06-20T21:57:54.903Z,97.20
2019-06-20T22:01:59.664Z,97.00
2019-06-20T22:06:04.438Z,97.30
2019-06-20T22:10:09.414Z,97.10
2019-06-20T22:14:14.008Z,97.30
2019-06-20T22:18:18.627Z,97.30
2019-06-20T22:22:23.175Z,97.20
2019-06-20T22:26:27.778Z,97.30
2019-06-20T22:30:41.471Z,97.00
2019-06-20T22:34:46.028Z,97.20
2019-06-20T22:38:50.587Z,96.80
2019-06-20T22:42:55.176Z,96.80
2019-06-20T22:46:59.736Z,97.20
2019-06-20T22:51:04.281Z,96.80
2019-06-20T22:55:09.043Z,96.80
2019-06-20T22:59:13.598Z,96.90
2019-06-20T23:03:18.123Z,97.20
2019-06-20T23:07:22.745Z,96.70
2019-06-20T23:11:27.292Z,96.90
2019-06-20T23:15:31.979Z,97.00
2019-06-20T23:19:36.509Z,97.30
2019-06-20T23:23:41.099Z,97.20
2019-06-20T23:27:46.394Z,97.30
2019-06-20T23:31:52.251Z,97.10
2019-06-20T23:35:56.804Z,96.90
2019-06-20T23:40:01.502Z,97.20
2019-06-20T23:44:06.057Z,97.40
2019-06-20T23:48:10.682Z,97.60
2019-06-20T23:52:25.514Z,97.30
2019-06-20T23:56:30.051Z,97.20
